Time;durP1;ratioP1;P1;durP2;ratioP2;P2;SDS_P1;SDS_P2;PMS_P1;PMS_P2;Temp;Humidity;BMP_temperature;BMP_pressure;BME280_temperature;BME280_humidity;BME280_pressure;Samples;Min_cycle;Max_cycle;Signal;HPM_P1;HPM_P2
2023/02/18 00:00:34;;;;;;;26.20;12.80;;;;;;;;;;4978813;28;20328;-69
2023/02/18 00:02:59;;;;;;;16.47;8.50;;;;;;;;;;4978265;28;20387;-69
2023/02/18 00:05:24;;;;;;;17.13;6.67;;;;;;;;;;4977908;28;20290;-69
2023/02/18 00:07:49;;;;;;;23.17;13.95;;;;;;;;;;4974495;28;20423;-69
2023/02/18 00:10:15;;;;;;;23.42;14.32;;;;;;;;;;4973600;28;20069;-69
2023/02/18 00:12:40;;;;;;;21.45;11.57;;;;;;;;;;4966925;28;20654;-69
2023/02/18 00:15:08;;;;;;;29.67;17.13;;;;;;;;;;4966227;28;20054;-69
2023/02/18 00:17:33;;;;;;;19.05;10.18;;;;;;;;;;4976615;28;20034;-69
2023/02/18 00:19:58;;;;;;;37.13;19.27;;;;;;;;;;4977576;28;20018;-69
2023/02/18 00:22:24;;;;;;;34.10;19.15;;;;;;;;;;4979131;28;20102;-69
2023/02/18 00:24:49;;;;;;;39.92;20.42;;;;;;;;;;4961946;28;20101;-69
2023/02/18 00:27:15;;;;;;;33.75;18.05;;;;;;;;;;4972522;28;20078;-69
2023/02/18 00:29:40;;;;;;;31.33;16.52;;;;;;;;;;4971324;28;20054;-69
2023/02/18 00:32:05;;;;;;;34.13;17.20;;;;;;;;;;4963538;28;20061;-70
2023/02/18 00:34:30;;;;;;;27.57;14.50;;;;;;;;;;4977555;28;20296;-70
2023/02/18 00:36:56;;;;;;;18.42;10.90;;;;;;;;;;4978567;28;20285;-70
2023/02/18 00:39:21;;;;;;;27.05;13.43;;;;;;;;;;4980159;28;20053;-69
2023/02/18 00:41:46;;;;;;;18.47;9.53;;;;;;;;;;4967966;28;20387;-69
2023/02/18 00:44:11;;;;;;;12.27;5.20;;;;;;;;;;4969262;28;20290;-69
2023/02/18 00:46:37;;;;;;;18.70;9.02;;;;;;;;;;4981767;28;20645;-69
2023/02/18 00:49:02;;;;;;;15.18;7.25;;;;;;;;;;4978389;28;20528;-69
2023/02/18 00:51:28;;;;;;;13.68;7.72;;;;;;;;;;4976995;28;20034;-69
2023/02/18 00:53:53;;;;;;;14.17;8.83;;;;;;;;;;4977067;28;20033;-69
2023/02/18 00:56:18;;;;;;;14.83;8.00;;;;;;;;;;4974711;28;20925;-69
2023/02/18 00:58:43;;;;;;;21.77;11.07;;;;;;;;;;4979274;28;20360;-69
2023/02/18 01:01:09;;;;;;;18.73;9.87;;;;;;;;;;4974670;28;20019;-69
2023/02/18 01:03:38;;;;;;;17.42;9.80;;;;;;;;;;4977393;28;21053;-69
2023/02/18 01:06:04;;;;;;;18.35;9.20;;;;;;;;;;4978282;28;20030;-69
2023/02/18 01:08:29;;;;;;;13.80;6.53;;;;;;;;;;4978090;28;20138;-69
2023/02/18 01:10:56;;;;;;;16.27;8.90;;;;;;;;;;4977724;28;20177;-69
2023/02/18 01:13:21;;;;;;;13.23;8.40;;;;;;;;;;4978271;28;20771;-69
2023/02/18 01:15:47;;;;;;;8.32;5.13;;;;;;;;;;4978046;28;20093;-69
2023/02/18 01:18:12;;;;;;;15.95;8.45;;;;;;;;;;4973608;28;20060;-69
2023/02/18 01:20:38;;;;;;;8.68;4.90;;;;;;;;;;4974472;28;20037;-69
2023/02/18 01:23:04;;;;;;;16.23;9.02;;;;;;;;;;4977486;28;20460;-69
2023/02/18 01:25:29;;;;;;;10.05;5.50;;;;;;;;;;4977542;28;20556;-69
2023/02/18 01:27:55;;;;;;;18.00;9.23;;;;;;;;;;4976792;28;20033;-69
2023/02/18 01:30:21;;;;;;;15.43;8.65;;;;;;;;;;4975251;28;20031;-71
2023/02/18 01:32:46;;;;;;;12.27;6.40;;;;;;;;;;4980062;28;20022;-69
2023/02/18 01:35:13;;;;;;;9.05;4.35;;;;;;;;;;4969658;28;20081;-70
2023/02/18 01:37:38;;;;;;;9.30;5.22;;;;;;;;;;4977192;28;20030;-69
2023/02/18 01:40:04;;;;;;;15.48;6.82;;;;;;;;;;4971058;28;20023;-69
2023/02/18 01:42:29;;;;;;;11.93;6.03;;;;;;;;;;4980440;28;20058;-69
2023/02/18 01:45:14;;;;;;;10.40;5.65;;;;;;;;;;4977279;28;20046;-69
2023/02/18 01:47:39;;;;;;;9.32;5.68;;;;;;;;;;4975139;28;20041;-69
2023/02/18 01:50:05;;;;;;;10.20;4.43;;;;;;;;;;4970471;28;20484;-69
2023/02/18 01:52:31;;;;;;;5.65;2.92;;;;;;;;;;4977845;28;20301;-69
2023/02/18 01:54:57;;;;;;;7.47;4.22;;;;;;;;;;4978069;28;20029;-69
2023/02/18 01:57:24;;;;;;;11.77;4.95;;;;;;;;;;4980191;28;20023;-69
2023/02/18 02:00:00;;;;;;;9.05;4.50;;;;;;;;;;4981091;28;20505;-69
2023/02/18 02:02:26;;;;;;;6.97;5.05;;;;;;;;;;4979227;28;20061;-69
2023/02/18 02:04:52;;;;;;;3.75;2.63;;;;;;;;;;4981321;28;20089;-69
2023/02/18 02:07:18;;;;;;;7.57;4.60;;;;;;;;;;4974331;28;20484;-69
2023/02/18 02:09:44;;;;;;;7.18;3.75;;;;;;;;;;4984373;28;20486;-68
2023/02/18 02:12:09;;;;;;;9.68;5.75;;;;;;;;;;4975984;28;20026;-68
2023/02/18 02:14:42;;;;;;;5.60;3.58;;;;;;;;;;4973657;28;20031;-68
2023/02/18 02:17:12;;;;;;;10.05;4.68;;;;;;;;;;4975482;28;20037;-69
2023/02/18 02:19:56;;;;;;;4.82;2.22;;;;;;;;;;4977043;28;21792;-69
2023/02/18 02:22:29;;;;;;;8.27;4.75;;;;;;;;;;4974192;28;20092;-69
2023/02/18 02:25:03;;;;;;;9.32;4.55;;;;;;;;;;4982484;28;20064;-69
2023/02/18 02:27:39;;;;;;;7.68;2.70;;;;;;;;;;4976737;28;20034;-69
2023/02/18 02:30:23;;;;;;;8.35;4.25;;;;;;;;;;4975779;28;20055;-69
2023/02/18 02:33:07;;;;;;;6.57;2.83;;;;;;;;;;4973236;28;20023;-69
2023/02/18 02:35:43;;;;;;;8.15;4.40;;;;;;;;;;4975638;28;20093;-69
2023/02/18 02:38:14;;;;;;;8.80;4.45;;;;;;;;;;4978439;28;20029;-69
2023/02/18 02:40:40;;;;;;;9.65;4.60;;;;;;;;;;4977041;28;20026;-69
2023/02/18 02:43:20;;;;;;;8.30;4.68;;;;;;;;;;4980940;28;20019;-68
2023/02/18 02:46:03;;;;;;;11.48;6.32;;;;;;;;;;4977417;28;20822;-69
2023/02/18 02:48:31;;;;;;;8.73;4.45;;;;;;;;;;4978930;28;20058;-69
2023/02/18 02:51:14;;;;;;;11.05;5.35;;;;;;;;;;4975909;28;20077;-69
2023/02/18 02:53:40;;;;;;;10.05;5.35;;;;;;;;;;4976407;28;20076;-69
2023/02/18 02:56:08;;;;;;;14.75;7.60;;;;;;;;;;4976984;28;20030;-69
2023/02/18 02:58:33;;;;;;;12.15;7.03;;;;;;;;;;4975758;28;20790;-69
2023/02/18 03:01:19;;;;;;;8.82;4.18;;;;;;;;;;4977607;28;20039;-69
2023/02/18 03:03:44;;;;;;;13.73;8.20;;;;;;;;;;4977296;28;20387;-69
2023/02/18 03:06:19;;;;;;;15.77;8.55;;;;;;;;;;4977653;28;20022;-69
2023/02/18 03:09:03;;;;;;;11.60;6.47;;;;;;;;;;4983247;28;20018;-69
2023/02/18 03:11:32;;;;;;;16.23;8.13;;;;;;;;;;4978766;28;20729;-69
2023/02/18 03:14:16;;;;;;;15.90;8.38;;;;;;;;;;4980726;28;20042;-69
2023/02/18 03:17:02;;;;;;;14.48;8.43;;;;;;;;;;4975257;28;20026;-69
2023/02/18 03:19:31;;;;;;;13.18;6.38;;;;;;;;;;4976791;28;20037;-68
2023/02/18 03:22:02;;;;;;;17.95;9.20;;;;;;;;;;4980112;28;20243;-68
2023/02/18 03:24:38;;;;;;;19.30;10.77;;;;;;;;;;4985090;28;20107;-69
2023/02/18 03:27:12;;;;;;;21.02;8.77;;;;;;;;;;4975943;28;20527;-69
2023/02/18 03:29:38;;;;;;;12.00;7.00;;;;;;;;;;4973933;28;20018;-69
2023/02/18 03:32:05;;;;;;;18.33;9.60;;;;;;;;;;4968528;28;20379;-69
2023/02/18 03:34:33;;;;;;;10.98;6.32;;;;;;;;;;4980999;28;20026;-69
2023/02/18 03:37:00;;;;;;;15.93;9.10;;;;;;;;;;4975709;28;20113;-69
2023/02/18 03:39:26;;;;;;;14.80;8.68;;;;;;;;;;4977308;28;20027;-69
2023/02/18 03:41:51;;;;;;;15.02;6.63;;;;;;;;;;4953464;28;20027;-69
2023/02/18 03:44:16;;;;;;;12.20;5.65;;;;;;;;;;4970496;28;20467;-68
2023/02/18 03:46:43;;;;;;;13.40;8.68;;;;;;;;;;4977851;28;20546;-68
2023/02/18 03:49:08;;;;;;;14.02;7.50;;;;;;;;;;4975336;28;20026;-68
2023/02/18 03:51:34;;;;;;;11.18;7.00;;;;;;;;;;4974780;28;20027;-68
2023/02/18 03:53:59;;;;;;;10.05;5.18;;;;;;;;;;4971091;28;20042;-68
2023/02/18 03:56:24;;;;;;;16.92;7.43;;;;;;;;;;4970415;28;20050;-68
2023/02/18 03:58:49;;;;;;;12.23;5.53;;;;;;;;;;4969788;28;20546;-67
2023/02/18 04:01:15;;;;;;;12.43;5.80;;;;;;;;;;4969645;28;20058;-68
2023/02/18 04:03:40;;;;;;;14.13;6.45;;;;;;;;;;4969664;28;20027;-67
2023/02/18 04:06:05;;;;;;;11.13;6.73;;;;;;;;;;4969202;28;20093;-68
2023/02/18 04:08:30;;;;;;;11.65;7.10;;;;;;;;;;4970738;28;20951;-68
2023/02/18 04:10:55;;;;;;;12.90;7.03;;;;;;;;;;4970297;28;20023;-68
2023/02/18 04:13:21;;;;;;;13.75;6.85;;;;;;;;;;4969834;28;20293;-68
2023/02/18 04:15:48;;;;;;;11.75;6.70;;;;;;;;;;4970958;28;20035;-68
2023/02/18 04:18:13;;;;;;;13.50;5.20;;;;;;;;;;4970480;28;20027;-68
2023/02/18 04:20:38;;;;;;;7.38;4.25;;;;;;;;;;4969276;28;20033;-68
2023/02/18 04:23:03;;;;;;;8.20;3.47;;;;;;;;;;4968174;28;20094;-68
2023/02/18 04:25:29;;;;;;;10.70;6.05;;;;;;;;;;4968436;28;20041;-68
2023/02/18 04:27:54;;;;;;;9.55;4.90;;;;;;;;;;4970510;28;20022;-68
2023/02/18 04:30:19;;;;;;;9.10;4.22;;;;;;;;;;4969991;28;20026;-68
2023/02/18 04:32:44;;;;;;;7.93;3.97;;;;;;;;;;4972136;28;20030;-68
2023/02/18 04:35:09;;;;;;;6.40;3.03;;;;;;;;;;4969639;28;20278;-68
2023/02/18 04:37:35;;;;;;;7.30;3.63;;;;;;;;;;4972279;28;20385;-68
2023/02/18 04:40:00;;;;;;;4.77;2.60;;;;;;;;;;4969194;28;20278;-68
2023/02/18 04:42:25;;;;;;;8.77;3.47;;;;;;;;;;4971863;28;20600;-68
2023/02/18 04:44:50;;;;;;;7.23;3.03;;;;;;;;;;4970761;28;20027;-68
2023/02/18 04:47:15;;;;;;;3.30;1.87;;;;;;;;;;4972134;28;20296;-68
2023/02/18 04:49:41;;;;;;;2.20;1.37;;;;;;;;;;4969765;28;20302;-68
2023/02/18 04:52:06;;;;;;;9.87;2.50;;;;;;;;;;4971206;28;20284;-68
2023/02/18 04:54:31;;;;;;;5.82;2.35;;;;;;;;;;4972300;28;20269;-68
2023/02/18 04:56:56;;;;;;;2.03;1.02;;;;;;;;;;4970318;28;20065;-68
2023/02/18 04:59:22;;;;;;;3.78;1.70;;;;;;;;;;4970955;28;20035;-68
2023/02/18 05:01:47;;;;;;;5.90;1.73;;;;;;;;;;4972002;28;20487;-68
2023/02/18 05:04:12;;;;;;;1.50;0.82;;;;;;;;;;4971614;28;20073;-68
2023/02/18 05:06:41;;;;;;;3.27;1.50;;;;;;;;;;4971764;28;20023;-68
2023/02/18 05:09:07;;;;;;;1.50;1.00;;;;;;;;;;4967768;28;20270;-68
2023/02/18 05:11:32;;;;;;;2.83;1.30;;;;;;;;;;4971706;28;20018;-68
2023/02/18 05:13:57;;;;;;;8.93;3.30;;;;;;;;;;4954367;28;20399;-68
2023/02/18 05:16:22;;;;;;;18.15;7.32;;;;;;;;;;4970464;28;20288;-68
2023/02/18 05:18:47;;;;;;;9.70;3.67;;;;;;;;;;4970534;28;20026;-68
2023/02/18 05:21:13;;;;;;;8.52;4.30;;;;;;;;;;4969450;28;20813;-68
2023/02/18 05:23:38;;;;;;;12.17;4.80;;;;;;;;;;4954163;28;20026;-68
2023/02/18 05:26:03;;;;;;;4.87;1.67;;;;;;;;;;4970392;28;20270;-68
2023/02/18 05:28:28;;;;;;;6.65;2.88;;;;;;;;;;4973057;28;20254;-68
2023/02/18 05:30:53;;;;;;;4.23;1.60;;;;;;;;;;4971495;28;20102;-68
2023/02/18 05:33:19;;;;;;;1.20;0.57;;;;;;;;;;4976743;28;20273;-68
2023/02/18 05:35:44;;;;;;;0.73;0.55;;;;;;;;;;4973458;28;20452;-68
2023/02/18 05:38:09;;;;;;;2.00;1.10;;;;;;;;;;4972474;28;20018;-68
2023/02/18 05:40:34;;;;;;;2.80;1.53;;;;;;;;;;4974044;28;20974;-68
2023/02/18 05:42:59;;;;;;;4.23;1.60;;;;;;;;;;4975487;28;20277;-68
2023/02/18 05:45:25;;;;;;;3.47;1.65;;;;;;;;;;4973615;28;20301;-67
2023/02/18 05:47:50;;;;;;;2.50;1.05;;;;;;;;;;4975742;28;20521;-67
2023/02/18 05:50:15;;;;;;;2.08;0.50;;;;;;;;;;4975212;28;20416;-67
2023/02/18 05:52:40;;;;;;;2.17;1.38;;;;;;;;;;4973454;28;20053;-67
2023/02/18 05:55:06;;;;;;;3.13;1.60;;;;;;;;;;4971929;28;20035;-67
2023/02/18 05:57:31;;;;;;;4.57;1.50;;;;;;;;;;4976649;28;20268;-67
2023/02/18 05:59:56;;;;;;;3.72;1.98;;;;;;;;;;4974063;28;20065;-67
2023/02/18 06:02:21;;;;;;;1.90;1.03;;;;;;;;;;4972455;28;20078;-67
2023/02/18 06:04:46;;;;;;;2.67;1.60;;;;;;;;;;4975036;28;20337;-68
2023/02/18 06:07:12;;;;;;;3.10;2.10;;;;;;;;;;4972843;28;20316;-68
2023/02/18 06:09:37;;;;;;;3.72;1.85;;;;;;;;;;4973243;28;20029;-68
2023/02/18 06:12:02;;;;;;;2.77;1.87;;;;;;;;;;4975862;28;20023;-68
2023/02/18 06:14:27;;;;;;;1.55;1.13;;;;;;;;;;4975246;28;20333;-67
2023/02/18 06:16:53;;;;;;;6.25;2.33;;;;;;;;;;4974659;28;20027;-67
2023/02/18 06:19:18;;;;;;;4.55;2.03;;;;;;;;;;4975526;28;20062;-68
2023/02/18 06:21:43;;;;;;;3.85;2.28;;;;;;;;;;4974510;28;20527;-67
2023/02/18 06:24:08;;;;;;;4.22;2.45;;;;;;;;;;4975228;28;20014;-68
2023/02/18 06:26:33;;;;;;;5.43;3.15;;;;;;;;;;4974573;28;20019;-68
2023/02/18 06:28:59;;;;;;;5.93;2.40;;;;;;;;;;4975003;28;20475;-68
2023/02/18 06:31:24;;;;;;;8.27;2.33;;;;;;;;;;4977030;28;20058;-68
2023/02/18 06:33:49;;;;;;;4.00;2.42;;;;;;;;;;4974575;28;20732;-68
2023/02/18 06:36:15;;;;;;;5.80;2.35;;;;;;;;;;4973632;28;20412;-68
2023/02/18 06:38:41;;;;;;;3.78;2.15;;;;;;;;;;4975381;28;20042;-68
2023/02/18 06:41:06;;;;;;;6.50;2.30;;;;;;;;;;4971579;28;20487;-68
2023/02/18 06:43:31;;;;;;;3.38;1.92;;;;;;;;;;4974274;28;20059;-68
2023/02/18 06:45:56;;;;;;;3.97;2.13;;;;;;;;;;4975447;28;20025;-68
2023/02/18 06:48:22;;;;;;;4.47;1.60;;;;;;;;;;4972872;28;20262;-68
2023/02/18 06:50:47;;;;;;;3.80;2.20;;;;;;;;;;4975542;28;20385;-68
2023/02/18 06:53:13;;;;;;;2.75;1.65;;;;;;;;;;4975811;28;20127;-68
2023/02/18 06:55:38;;;;;;;2.85;2.03;;;;;;;;;;4974785;28;20077;-68
2023/02/18 06:58:03;;;;;;;3.57;2.10;;;;;;;;;;4973978;28;20031;-68
2023/02/18 07:00:28;;;;;;;2.50;1.67;;;;;;;;;;4973629;28;20322;-68
2023/02/18 07:02:53;;;;;;;5.60;1.50;;;;;;;;;;4971884;28;20103;-68
2023/02/18 07:05:19;;;;;;;2.60;1.60;;;;;;;;;;4972077;28;20019;-68
2023/02/18 07:07:44;;;;;;;3.83;1.10;;;;;;;;;;4972377;28;20027;-68
2023/02/18 07:10:09;;;;;;;1.80;0.95;;;;;;;;;;4971503;28;20015;-68
2023/02/18 07:12:35;;;;;;;1.35;0.90;;;;;;;;;;4972676;28;20443;-68
2023/02/18 07:15:00;;;;;;;1.20;0.90;;;;;;;;;;4973078;28;20033;-68
2023/02/18 07:17:25;;;;;;;1.63;0.80;;;;;;;;;;4973385;28;20029;-68
2023/02/18 07:19:50;;;;;;;2.78;1.75;;;;;;;;;;4973601;28;20270;-69
2023/02/18 07:22:15;;;;;;;1.83;0.85;;;;;;;;;;4973358;28;20162;-68
2023/02/18 07:24:41;;;;;;;0.80;0.52;;;;;;;;;;4972560;28;20022;-68
2023/02/18 07:27:06;;;;;;;1.45;0.63;;;;;;;;;;4973237;28;20026;-69
2023/02/18 07:29:31;;;;;;;3.33;0.85;;;;;;;;;;4975548;28;20061;-68
2023/02/18 07:31:57;;;;;;;1.95;0.90;;;;;;;;;;4968251;28;20073;-68
2023/02/18 07:34:22;;;;;;;1.67;0.90;;;;;;;;;;4964514;28;20030;-68
2023/02/18 07:36:47;;;;;;;2.83;0.80;;;;;;;;;;4962714;28;20301;-69
2023/02/18 07:39:12;;;;;;;1.00;0.60;;;;;;;;;;4970239;28;20116;-69
2023/02/18 07:41:37;;;;;;;2.80;0.98;;;;;;;;;;4975794;28;20342;-69
2023/02/18 07:44:03;;;;;;;0.90;0.52;;;;;;;;;;4966508;28;20024;-69
2023/02/18 07:46:28;;;;;;;1.17;0.68;;;;;;;;;;4974458;28;20019;-69
2023/02/18 07:48:53;;;;;;;3.13;0.85;;;;;;;;;;4965786;28;20388;-68
2023/02/18 07:51:18;;;;;;;1.30;0.53;;;;;;;;;;4969595;28;20150;-68
2023/02/18 07:53:44;;;;;;;2.13;0.70;;;;;;;;;;4968146;28;20290;-68
2023/02/18 07:56:09;;;;;;;1.30;0.65;;;;;;;;;;4966193;28;20560;-68
2023/02/18 07:58:35;;;;;;;2.80;0.60;;;;;;;;;;4965478;28;20026;-68
2023/02/18 08:01:04;;;;;;;2.50;1.40;;;;;;;;;;4970086;28;20033;-69
2023/02/18 08:03:30;;;;;;;2.92;1.30;;;;;;;;;;4970557;28;20097;-68
2023/02/18 08:05:56;;;;;;;1.40;0.98;;;;;;;;;;4969543;28;20023;-68
2023/02/18 08:08:23;;;;;;;1.80;1.17;;;;;;;;;;4977181;28;20412;-68
2023/02/18 08:10:49;;;;;;;3.58;0.80;;;;;;;;;;4971705;28;20728;-69
2023/02/18 08:13:14;;;;;;;3.88;0.60;;;;;;;;;;4968269;28;20026;-68
2023/02/18 08:15:39;;;;;;;1.15;0.60;;;;;;;;;;4971221;28;20034;-69
2023/02/18 08:18:05;;;;;;;3.33;0.93;;;;;;;;;;4971477;28;20080;-68
2023/02/18 08:20:30;;;;;;;2.35;0.57;;;;;;;;;;4973476;28;20026;-68
2023/02/18 08:22:55;;;;;;;1.30;1.02;;;;;;;;;;4971322;28;20126;-68
2023/02/18 08:25:21;;;;;;;1.85;0.90;;;;;;;;;;4972363;28;20045;-68
2023/02/18 08:27:46;;;;;;;3.40;0.95;;;;;;;;;;4973159;28;20151;-68
2023/02/18 08:30:11;;;;;;;8.45;2.88;;;;;;;;;;4962180;28;20054;-68
2023/02/18 08:32:37;;;;;;;5.03;1.60;;;;;;;;;;4962158;28;20110;-68
2023/02/18 08:35:02;;;;;;;7.13;1.57;;;;;;;;;;4963666;28;20046;-68
2023/02/18 08:37:28;;;;;;;4.47;1.52;;;;;;;;;;4966392;28;20754;-68
2023/02/18 08:39:53;;;;;;;11.45;1.98;;;;;;;;;;4969483;28;20097;-68
2023/02/18 08:42:18;;;;;;;7.82;1.65;;;;;;;;;;4957885;28;20484;-69
2023/02/18 08:44:44;;;;;;;3.43;1.60;;;;;;;;;;4960453;28;20030;-69
2023/02/18 08:47:09;;;;;;;3.33;1.23;;;;;;;;;;4962213;28;20309;-69
2023/02/18 08:49:35;;;;;;;6.13;0.90;;;;;;;;;;4966387;28;20019;-69
2023/02/18 08:52:01;;;;;;;5.10;1.77;;;;;;;;;;4964602;28;20534;-69
2023/02/18 08:54:26;;;;;;;10.13;2.35;;;;;;;;;;4967755;28;20030;-68
2023/02/18 08:56:53;;;;;;;10.90;2.53;;;;;;;;;;4971253;28;20030;-69
2023/02/18 08:59:18;;;;;;;4.88;1.67;;;;;;;;;;4973227;28;20298;-69
2023/02/18 09:01:43;;;;;;;9.67;1.33;;;;;;;;;;4970004;28;20141;-68
2023/02/18 09:04:08;;;;;;;4.83;1.67;;;;;;;;;;4965728;28;20266;-68
2023/02/18 09:06:36;;;;;;;6.67;3.23;;;;;;;;;;4976659;28;20312;-68
2023/02/18 09:09:02;;;;;;;5.22;1.73;;;;;;;;;;4971707;28;20308;-68
2023/02/18 09:11:27;;;;;;;11.18;2.05;;;;;;;;;;4973829;28;20065;-68
2023/02/18 09:13:52;;;;;;;10.65;3.47;;;;;;;;;;4970198;28;20026;-68
2023/02/18 09:16:18;;;;;;;13.35;3.67;;;;;;;;;;4974778;28;20027;-68
2023/02/18 09:18:44;;;;;;;6.90;2.57;;;;;;;;;;4956106;28;20030;-68
2023/02/18 09:21:11;;;;;;;8.68;2.22;;;;;;;;;;4976583;28;20290;-69
2023/02/18 09:23:37;;;;;;;6.38;1.83;;;;;;;;;;4960111;28;20023;-69
2023/02/18 09:26:06;;;;;;;8.05;2.17;;;;;;;;;;4977129;28;20145;-68
2023/02/18 09:28:31;;;;;;;7.88;1.58;;;;;;;;;;4978293;28;20076;-68
2023/02/18 09:30:56;;;;;;;7.00;2.28;;;;;;;;;;4975403;28;20038;-68
2023/02/18 09:33:22;;;;;;;13.97;2.03;;;;;;;;;;4971666;28;20105;-69
2023/02/18 09:35:47;;;;;;;7.40;2.53;;;;;;;;;;4972728;28;20638;-68
2023/02/18 09:38:14;;;;;;;17.33;2.90;;;;;;;;;;4973768;28;20476;-69
2023/02/18 09:40:43;;;;;;;14.13;2.45;;;;;;;;;;4975658;28;20027;-68
2023/02/18 09:43:15;;;;;;;10.68;2.03;;;;;;;;;;4971082;28;20050;-69
2023/02/18 09:45:40;;;;;;;9.25;1.38;;;;;;;;;;4972506;28;20038;-69
2023/02/18 09:48:06;;;;;;;11.47;1.80;;;;;;;;;;4973953;28;20287;-68
2023/02/18 09:50:32;;;;;;;0.98;0.70;;;;;;;;;;4977934;28;20281;-69
2023/02/18 09:52:58;;;;;;;13.02;2.20;;;;;;;;;;4976732;28;20607;-68
2023/02/18 09:55:26;;;;;;;6.13;1.17;;;;;;;;;;4974165;28;20023;-68
2023/02/18 09:57:52;;;;;;;6.45;2.72;;;;;;;;;;4968790;28;20027;-69
2023/02/18 10:00:21;;;;;;;9.23;2.95;;;;;;;;;;4966238;28;20652;-69
2023/02/18 10:02:54;;;;;;;14.02;2.85;;;;;;;;;;4971787;28;20391;-69
2023/02/18 10:05:19;;;;;;;5.35;1.45;;;;;;;;;;4969148;28;20023;-69
2023/02/18 10:07:46;;;;;;;6.13;2.47;;;;;;;;;;4970693;28;20023;-69
2023/02/18 10:10:17;;;;;;;9.05;2.15;;;;;;;;;;4979967;28;20531;-68
2023/02/18 10:12:43;;;;;;;13.02;1.92;;;;;;;;;;4977603;28;20476;-70
2023/02/18 10:15:15;;;;;;;22.52;3.88;;;;;;;;;;4976809;28;20019;-69
2023/02/18 10:17:40;;;;;;;8.25;1.90;;;;;;;;;;4976544;28;20025;-69
2023/02/18 10:20:06;;;;;;;10.32;3.90;;;;;;;;;;4977178;28;20098;-68
2023/02/18 10:22:31;;;;;;;9.55;2.13;;;;;;;;;;4981516;28;20105;-69
2023/02/18 10:25:01;;;;;;;8.88;2.30;;;;;;;;;;4973690;28;20118;-68
2023/02/18 10:27:28;;;;;;;15.35;3.00;;;;;;;;;;4976736;28;20037;-67
2023/02/18 10:29:54;;;;;;;16.13;2.65;;;;;;;;;;4979630;28;20027;-68
2023/02/18 10:32:35;;;;;;;8.32;2.05;;;;;;;;;;4966202;28;20109;-68
2023/02/18 10:35:35;;;;;;;10.20;3.10;;;;;;;;;;4973298;28;20058;-68
2023/02/18 10:38:07;;;;;;;3.28;1.40;;;;;;;;;;4877228;29;20037;-68
2023/02/18 10:40:32;;;;;;;7.25;1.45;;;;;;;;;;4964514;28;20117;-69
2023/02/18 10:43:17;;;;;;;15.23;1.73;;;;;;;;;;4965342;28;20105;-68
2023/02/18 10:45:42;;;;;;;14.85;2.40;;;;;;;;;;4965911;28;20361;-68
2023/02/18 10:48:26;;;;;;;17.45;4.00;;;;;;;;;;4975659;28;20098;-68
2023/02/18 10:50:52;;;;;;;10.82;2.80;;;;;;;;;;4976975;28;20426;-69
2023/02/18 10:53:20;;;;;;;9.88;1.90;;;;;;;;;;4984343;28;20014;-69
2023/02/18 10:55:48;;;;;;;12.35;3.15;;;;;;;;;;4971342;28;20018;-69
2023/02/18 10:58:31;;;;;;;13.57;1.88;;;;;;;;;;4972709;28;20019;-68
2023/02/18 11:00:57;;;;;;;12.40;3.40;;;;;;;;;;4969740;28;20660;-68
2023/02/18 11:03:23;;;;;;;11.60;3.20;;;;;;;;;;4970310;28;20023;-68
2023/02/18 11:05:53;;;;;;;10.10;2.60;;;;;;;;;;4968295;28;20033;-68
2023/02/18 11:08:24;;;;;;;11.35;3.55;;;;;;;;;;4973352;28;20062;-68
2023/02/18 11:10:49;;;;;;;13.55;5.22;;;;;;;;;;4976402;28;20135;-69
2023/02/18 11:13:16;;;;;;;10.07;3.88;;;;;;;;;;4978439;28;20105;-68
2023/02/18 11:15:58;;;;;;;21.58;6.47;;;;;;;;;;4980569;28;20019;-69
2023/02/18 11:18:24;;;;;;;13.02;4.78;;;;;;;;;;4977288;28;20035;-69
2023/02/18 11:20:57;;;;;;;13.55;4.28;;;;;;;;;;4977802;28;20034;-68
2023/02/18 11:23:22;;;;;;;21.02;6.20;;;;;;;;;;4969052;28;20015;-69
2023/02/18 11:26:06;;;;;;;14.23;5.53;;;;;;;;;;4973898;28;20022;-69
2023/02/18 11:28:38;;;;;;;10.05;4.72;;;;;;;;;;4974019;28;20030;-69
2023/02/18 11:31:04;;;;;;;15.95;5.03;;;;;;;;;;4969272;28;20373;-68
2023/02/18 11:33:40;;;;;;;19.25;6.18;;;;;;;;;;4979216;28;20038;-68
2023/02/18 11:36:26;;;;;;;10.27;5.15;;;;;;;;;;4975410;28;20023;-68
2023/02/18 11:38:56;;;;;;;12.07;4.43;;;;;;;;;;4973687;28;20052;-69
2023/02/18 11:41:41;;;;;;;10.90;4.37;;;;;;;;;;4975405;28;20105;-68
2023/02/18 11:44:19;;;;;;;6.68;3.00;;;;;;;;;;4973423;28;20460;-68
2023/02/18 11:47:05;;;;;;;10.20;2.42;;;;;;;;;;4971037;28;20026;-68
2023/02/18 11:49:32;;;;;;;8.27;3.13;;;;;;;;;;4975851;28;20046;-68
2023/02/18 11:52:11;;;;;;;9.68;4.18;;;;;;;;;;4970084;28;20038;-68
2023/02/18 11:54:37;;;;;;;3.75;1.90;;;;;;;;;;4966961;28;20049;-69
2023/02/18 11:57:04;;;;;;;12.63;6.00;;;;;;;;;;4971306;28;20026;-68
2023/02/18 11:59:31;;;;;;;6.25;2.65;;;;;;;;;;4945903;28;20683;-69
2023/02/18 12:02:02;;;;;;;10.27;5.30;;;;;;;;;;4967051;28;20419;-70
2023/02/18 12:04:40;;;;;;;13.68;5.35;;;;;;;;;;4976394;28;20039;-69
2023/02/18 12:07:16;;;;;;;12.63;5.95;;;;;;;;;;4962850;28;20384;-68
2023/02/18 12:09:49;;;;;;;14.13;5.97;;;;;;;;;;4969252;28;20038;-68
2023/02/18 12:12:14;;;;;;;10.18;5.60;;;;;;;;;;4973907;28;20026;-69
2023/02/18 12:14:39;;;;;;;4.43;2.42;;;;;;;;;;4975859;28;20521;-68
2023/02/18 12:17:04;;;;;;;13.25;5.80;;;;;;;;;;4967348;28;20484;-68
2023/02/18 12:19:50;;;;;;;14.82;6.47;;;;;;;;;;4972648;28;20042;-68
2023/02/18 12:22:15;;;;;;;8.43;5.47;;;;;;;;;;4973939;28;20121;-69
2023/02/18 12:24:47;;;;;;;8.68;5.35;;;;;;;;;;4974295;28;20118;-70
2023/02/18 12:27:14;;;;;;;10.65;7.05;;;;;;;;;;4977114;28;20270;-68
2023/02/18 12:29:55;;;;;;;8.20;5.20;;;;;;;;;;4974012;28;20022;-68
2023/02/18 12:32:20;;;;;;;;;;;;;;;;;;4976331;28;20019;-69
2023/02/18 12:34:48;;;;;;;7.65;4.40;;;;;;;;;;4972578;28;19929;-69
2023/02/18 12:37:25;;;;;;;6.25;3.38;;;;;;;;;;4970931;28;20511;-69
2023/02/18 12:39:50;;;;;;;17.20;7.45;;;;;;;;;;4973356;28;20030;-68
2023/02/18 12:42:34;;;;;;;6.38;3.80;;;;;;;;;;4974041;28;20506;-68
2023/02/18 12:45:11;;;;;;;12.35;6.30;;;;;;;;;;4977339;28;20138;-68
2023/02/18 12:47:36;;;;;;;10.75;5.22;;;;;;;;;;4973226;28;20259;-70
2023/02/18 12:50:13;;;;;;;15.60;9.23;;;;;;;;;;4973666;28;20077;-68
2023/02/18 12:52:41;;;;;;;21.17;9.55;;;;;;;;;;4970350;28;20460;-68
2023/02/18 12:55:15;;;;;;;5.05;3.72;;;;;;;;;;4969909;28;20022;-68
2023/02/18 12:58:12;;;;;;;9.18;4.03;;;;;;;;;;4968592;28;20542;-68
2023/02/18 13:00:56;;;;;;;10.80;5.60;;;;;;;;;;4940318;28;20042;-68
2023/02/18 13:03:40;;;;;;;13.30;6.70;;;;;;;;;;4976089;28;20019;-68
2023/02/18 13:06:08;;;;;;;16.60;6.72;;;;;;;;;;4973445;28;20496;-69
2023/02/18 13:08:52;;;;;;;15.77;3.42;;;;;;;;;;4975207;28;20085;-68
2023/02/18 13:11:17;;;;;;;15.65;7.63;;;;;;;;;;4975831;28;20033;-69
2023/02/18 13:13:51;;;;;;;7.45;4.20;;;;;;;;;;4979078;28;20023;-69
2023/02/18 13:16:18;;;;;;;9.48;4.53;;;;;;;;;;4958367;28;20053;-69
2023/02/18 13:18:58;;;;;;;9.55;5.63;;;;;;;;;;4979027;28;20014;-69
2023/02/18 13:21:23;;;;;;;13.17;6.17;;;;;;;;;;4975730;28;20031;-69
2023/02/18 13:23:54;;;;;;;8.68;5.97;;;;;;;;;;4974974;28;20015;-69
2023/02/18 13:26:20;;;;;;;12.55;6.68;;;;;;;;;;4979228;28;20026;-69
2023/02/18 13:28:51;;;;;;;13.77;6.40;;;;;;;;;;4975742;28;20023;-69
2023/02/18 13:31:21;;;;;;;7.65;4.90;;;;;;;;;;4973400;28;20550;-69
2023/02/18 13:33:57;;;;;;;11.88;5.10;;;;;;;;;;4972772;28;20027;-69
2023/02/18 13:36:31;;;;;;;13.65;7.53;;;;;;;;;;4975667;28;20077;-69
2023/02/18 13:39:07;;;;;;;22.20;8.63;;;;;;;;;;4973599;28;20098;-69
2023/02/18 13:41:40;;;;;;;9.70;5.55;;;;;;;;;;4970634;28;20179;-69
2023/02/18 13:44:28;;;;;;;15.30;6.75;;;;;;;;;;4973443;28;20109;-69
2023/02/18 13:46:55;;;;;;;11.02;5.38;;;;;;;;;;4975167;28;20014;-69
2023/02/18 13:49:22;;;;;;;6.78;3.72;;;;;;;;;;4973684;28;20380;-69
2023/02/18 13:51:49;;;;;;;10.23;5.93;;;;;;;;;;4975710;28;20026;-69
2023/02/18 13:54:21;;;;;;;12.38;5.32;;;;;;;;;;4981494;28;20054;-70
2023/02/18 13:56:53;;;;;;;16.10;9.52;;;;;;;;;;4973575;28;20025;-68
2023/02/18 13:59:27;;;;;;;17.83;11.27;;;;;;;;;;4983481;28;20444;-69
2023/02/18 14:01:52;;;;;;;20.63;9.40;;;;;;;;;;4977651;28;20020;-69
2023/02/18 14:04:35;;;;;;;21.30;10.13;;;;;;;;;;4974054;28;20099;-69
2023/02/18 14:07:20;;;;;;;12.57;7.80;;;;;;;;;;4976013;28;20078;-69
2023/02/18 14:09:45;;;;;;;19.33;11.48;;;;;;;;;;4981829;28;20081;-69
2023/02/18 14:12:16;;;;;;;13.77;8.07;;;;;;;;;;4976248;28;20118;-69
2023/02/18 14:14:41;;;;;;;15.38;8.13;;;;;;;;;;4973555;28;20041;-69
2023/02/18 14:17:13;;;;;;;19.80;12.13;;;;;;;;;;4971734;28;20619;-70
2023/02/18 14:19:38;;;;;;;16.90;10.40;;;;;;;;;;4972595;28;20328;-69
2023/02/18 14:22:22;;;;;;;20.88;12.38;;;;;;;;;;4974233;28;20050;-69
2023/02/18 14:24:48;;;;;;;20.27;12.73;;;;;;;;;;4976504;28;20072;-69
2023/02/18 14:27:15;;;;;;;19.55;11.70;;;;;;;;;;4975700;28;20038;-71
2023/02/18 14:29:40;;;;;;;18.95;12.02;;;;;;;;;;4978322;28;20101;-68
2023/02/18 14:32:12;;;;;;;21.33;9.70;;;;;;;;;;4966744;28;20113;-69
2023/02/18 14:34:49;;;;;;;20.83;11.48;;;;;;;;;;4966485;28;20551;-69
2023/02/18 14:37:14;;;;;;;9.50;5.82;;;;;;;;;;4973168;28;20026;-69
2023/02/18 14:39:48;;;;;;;16.63;8.52;;;;;;;;;;4979635;28;20025;-68
2023/02/18 14:42:32;;;;;;;18.92;12.27;;;;;;;;;;4970626;28;20027;-69